Tooting, United Kingdom
Current Conditions -  °F | °C
As of 12:50 AM on Saturday 20 Dec 2014 (Local Time) from EGLC Reporting Station
Clear Clear  
Wind Chill:   Ceiling: Unl
Heat Index:   Visibility: 6mi
Dew Point:   Wind: 15mph
Humidity: 76%   Direction: 250°WSW
Pressure: 30.21"   Gusts: NA
Location:  51.43°N, 0.18°W
Report Text: EGLC 200050Z AUTO 25013KT 9999 NCD 07/03 Q1023
Loading
Personal Weather Stations






























Interactive Weather Map New forecast layout! Learn more

10-Day Weather Forecast

Advertisements
Track Severe Weather on mobile